sensor_id;sensor_type;location;lat;lon;timestamp;pressure;altitude;pressure_sealevel;temperature;humidity
71666;BME280;59503;53.486;10.196;2023-01-25T00:01:26;103911.34;;;-0.74;100.00
71666;BME280;59503;53.486;10.196;2023-01-25T00:03:52;103914.22;;;-0.69;100.00
71666;BME280;59503;53.486;10.196;2023-01-25T00:06:17;103909.09;;;-0.77;100.00
71666;BME280;59503;53.486;10.196;2023-01-25T00:08:43;103903.53;;;-0.76;100.00
71666;BME280;59503;53.486;10.196;2023-01-25T00:11:08;103907.63;;;-0.73;100.00
71666;BME280;59503;53.486;10.196;2023-01-25T00:13:34;103891.19;;;-0.77;100.00
71666;BME280;59503;53.486;10.196;2023-01-25T00:16:01;103890.97;;;-0.75;100.00
71666;BME280;59503;53.486;10.196;2023-01-25T00:18:26;103884.03;;;-0.83;100.00
71666;BME280;59503;53.486;10.196;2023-01-25T00:20:52;103877.66;;;-0.82;100.00
71666;BME280;59503;53.486;10.196;2023-01-25T00:23:17;103877.25;;;-0.85;100.00
71666;BME280;59503;53.486;10.196;2023-01-25T00:25:42;103877.66;;;-0.82;100.00
71666;BME280;59503;53.486;10.196;2023-01-25T00:28:08;103872.13;;;-0.87;100.00
71666;BME280;59503;53.486;10.196;2023-01-25T00:30:33;103880.97;;;-0.86;100.00
71666;BME280;59503;53.486;10.196;2023-01-25T00:33:31;103888.34;;;-0.88;100.00
71666;BME280;59503;53.486;10.196;2023-01-25T00:35:55;103874.38;;;-0.90;100.00
71666;BME280;59503;53.486;10.196;2023-01-25T00:38:33;103864.72;;;-0.85;100.00
71666;BME280;59503;53.486;10.196;2023-01-25T00:40:59;103871.50;;;-0.89;100.00
71666;BME280;59503;53.486;10.196;2023-01-25T00:43:25;103868.63;;;-0.94;100.00
71666;BME280;59503;53.486;10.196;2023-01-25T00:45:51;103864.75;;;-0.91;100.00
71666;BME280;59503;53.486;10.196;2023-01-25T00:48:16;103864.94;;;-0.86;100.00
71666;BME280;59503;53.486;10.196;2023-01-25T00:50:42;103865.78;;;-0.86;100.00
71666;BME280;59503;53.486;10.196;2023-01-25T00:53:07;103861.66;;;-0.88;100.00
71666;BME280;59503;53.486;10.196;2023-01-25T00:55:33;103862.69;;;-0.89;100.00
71666;BME280;59503;53.486;10.196;2023-01-25T00:57:58;103862.69;;;-0.89;100.00
71666;BME280;59503;53.486;10.196;2023-01-25T01:00:23;103854.50;;;-0.94;100.00
71666;BME280;59503;53.486;10.196;2023-01-25T01:02:49;103846.69;;;-1.02;100.00
71666;BME280;59503;53.486;10.196;2023-01-25T01:05:14;103836.00;;;-0.96;100.00
71666;BME280;59503;53.486;10.196;2023-01-25T01:07:40;103839.69;;;-0.90;100.00
71666;BME280;59503;53.486;10.196;2023-01-25T01:10:06;103840.91;;;-0.86;100.00
71666;BME280;59503;53.486;10.196;2023-01-25T01:12:31;103837.63;;;-0.88;100.00
71666;BME280;59503;53.486;10.196;2023-01-25T01:14:57;103831.25;;;-0.87;100.00
71666;BME280;59503;53.486;10.196;2023-01-25T01:17:22;103837.00;;;-0.90;100.00
71666;BME280;59503;53.486;10.196;2023-01-25T01:19:48;103838.44;;;-0.88;100.00
71666;BME280;59503;53.486;10.196;2023-01-25T01:22:13;103830.25;;;-0.93;100.00
71666;BME280;59503;53.486;10.196;2023-01-25T01:24:39;103841.34;;;-0.89;100.00
71666;BME280;59503;53.486;10.196;2023-01-25T01:27:04;103844.03;;;-0.96;100.00
71666;BME280;59503;53.486;10.196;2023-01-25T01:29:29;103833.94;;;-1.00;100.00
71666;BME280;59503;53.486;10.196;2023-01-25T01:31:55;103830.06;;;-1.04;100.00
71666;BME280;59503;53.486;10.196;2023-01-25T01:34:20;103826.59;;;-1.11;100.00
71666;BME280;59503;53.486;10.196;2023-01-25T01:36:46;103835.22;;;-1.09;100.00
71666;BME280;59503;53.486;10.196;2023-01-25T01:39:12;103833.97;;;-1.07;100.00
71666;BME280;59503;53.486;10.196;2023-01-25T01:41:37;103838.50;;;-1.14;100.00
71666;BME280;59503;53.486;10.196;2023-01-25T01:44:03;103836.88;;;-1.21;100.00
71666;BME280;59503;53.486;10.196;2023-01-25T01:49:05;103830.28;;;-1.19;100.00
71666;BME280;59503;53.486;10.196;2023-01-25T01:54:18;103828.00;;;-1.09;100.00
71666;BME280;59503;53.486;10.196;2023-01-25T01:56:53;103819.59;;;-0.99;100.00
71666;BME280;59503;53.486;10.196;2023-01-25T01:59:23;103820.59;;;-0.94;100.00
71666;BME280;59503;53.486;10.196;2023-01-25T02:01:51;103818.56;;;-0.98;100.00
71666;BME280;59503;53.486;10.196;2023-01-25T02:04:18;103825.31;;;-1.02;100.00
71666;BME280;59503;53.486;10.196;2023-01-25T02:06:51;103823.06;;;-0.99;100.00
71666;BME280;59503;53.486;10.196;2023-01-25T02:09:21;103810.53;;;-0.98;100.00
71666;BME280;59503;53.486;10.196;2023-01-25T02:11:50;103807.91;;;-1.05;100.00
71666;BME280;59503;53.486;10.196;2023-01-25T02:14:16;103812.63;;;-1.07;100.00
71666;BME280;59503;53.486;10.196;2023-01-25T02:16:43;103804.41;;;-1.12;100.00
71666;BME280;59503;53.486;10.196;2023-01-25T02:19:12;103806.47;;;-1.20;100.00
71666;BME280;59503;53.486;10.196;2023-01-25T02:21:43;103803.00;;;-1.14;100.00
71666;BME280;59503;53.486;10.196;2023-01-25T02:24:15;103812.66;;;-1.20;100.00
71666;BME280;59503;53.486;10.196;2023-01-25T02:26:45;103802.41;;;-1.30;100.00
71666;BME280;59503;53.486;10.196;2023-01-25T02:29:11;103796.66;;;-1.27;100.00
71666;BME280;59503;53.486;10.196;2023-01-25T02:31:37;103804.47;;;-1.32;100.00
71666;BME280;59503;53.486;10.196;2023-01-25T02:34:02;103806.50;;;-1.34;100.00
71666;BME280;59503;53.486;10.196;2023-01-25T02:36:33;103794.38;;;-1.36;100.00
71666;BME280;59503;53.486;10.196;2023-01-25T02:39:28;103789.88;;;-1.36;100.00
71666;BME280;59503;53.486;10.196;2023-01-25T02:41:54;103799.72;;;-1.36;100.00
71666;BME280;59503;53.486;10.196;2023-01-25T02:44:26;103788.47;;;-1.38;100.00
71666;BME280;59503;53.486;10.196;2023-01-25T02:46:53;103797.06;;;-1.30;100.00
71666;BME280;59503;53.486;10.196;2023-01-25T02:49:18;103798.94;;;-1.37;100.00
71666;BME280;59503;53.486;10.196;2023-01-25T02:51:47;103795.84;;;-1.40;100.00
71666;BME280;59503;53.486;10.196;2023-01-25T02:54:14;103794.59;;;-1.38;100.00
71666;BME280;59503;53.486;10.196;2023-01-25T02:56:40;103774.13;;;-1.50;100.00
71666;BME280;59503;53.486;10.196;2023-01-25T02:59:06;103786.41;;;-1.43;100.00
71666;BME280;59503;53.486;10.196;2023-01-25T03:01:33;103777.19;;;-1.47;100.00
71666;BME280;59503;53.486;10.196;2023-01-25T03:03:59;103785.59;;;-1.43;100.00
71666;BME280;59503;53.486;10.196;2023-01-25T03:06:24;103773.28;;;-1.44;100.00
71666;BME280;59503;53.486;10.196;2023-01-25T03:08:50;103765.69;;;-1.41;100.00
71666;BME280;59503;53.486;10.196;2023-01-25T03:11:15;103759.72;;;-1.43;100.00
71666;BME280;59503;53.486;10.196;2023-01-25T03:13:42;103756.47;;;-1.45;100.00
71666;BME280;59503;53.486;10.196;2023-01-25T03:16:10;103766.53;;;-1.47;100.00
71666;BME280;59503;53.486;10.196;2023-01-25T03:18:36;103754.81;;;-1.46;100.00
71666;BME280;59503;53.486;10.196;2023-01-25T03:21:17;103747.44;;;-1.44;100.00
71666;BME280;59503;53.486;10.196;2023-01-25T03:23:44;103748.06;;;-1.42;100.00
71666;BME280;59503;53.486;10.196;2023-01-25T03:26:19;103754.38;;;-1.30;100.00
71666;BME280;59503;53.486;10.196;2023-01-25T03:28:45;103751.72;;;-1.30;100.00
71666;BME280;59503;53.486;10.196;2023-01-25T03:31:13;103736.72;;;-1.31;100.00
71666;BME280;59503;53.486;10.196;2023-01-25T03:33:39;103739.81;;;-1.34;100.00
71666;BME280;59503;53.486;10.196;2023-01-25T03:36:06;103735.69;;;-1.36;100.00
71666;BME280;59503;53.486;10.196;2023-01-25T03:38:32;103728.75;;;-1.37;100.00
71666;BME280;59503;53.486;10.196;2023-01-25T03:40:58;103719.88;;;-1.31;100.00
71666;BME280;59503;53.486;10.196;2023-01-25T03:43:24;103722.38;;;-1.36;100.00
71666;BME280;59503;53.486;10.196;2023-01-25T03:45:55;103727.91;;;-1.38;100.00
71666;BME280;59503;53.486;10.196;2023-01-25T03:48:21;103728.72;;;-1.31;100.00
71666;BME280;59503;53.486;10.196;2023-01-25T03:50:49;103732.22;;;-1.37;100.00
71666;BME280;59503;53.486;10.196;2023-01-25T03:53:15;103732.25;;;-1.43;100.00
71666;BME280;59503;53.486;10.196;2023-01-25T03:55:52;103721.41;;;-1.55;100.00
71666;BME280;59503;53.486;10.196;2023-01-25T03:58:18;103730.19;;;-1.48;100.00
71666;BME280;59503;53.486;10.196;2023-01-25T04:00:43;103733.47;;;-1.46;100.00
71666;BME280;59503;53.486;10.196;2023-01-25T04:03:09;103724.84;;;-1.48;100.00
71666;BME280;59503;53.486;10.196;2023-01-25T04:05:34;103728.16;;;-1.46;100.00
71666;BME280;59503;53.486;10.196;2023-01-25T04:08:00;103731.84;;;-1.47;100.00
71666;BME280;59503;53.486;10.196;2023-01-25T04:10:25;103725.28;;;-1.57;100.00
71666;BME280;59503;53.486;10.196;2023-01-25T04:12:50;103721.19;;;-1.53;100.00
71666;BME280;59503;53.486;10.196;2023-01-25T04:15:16;103718.31;;;-1.52;100.00
71666;BME280;59503;53.486;10.196;2023-01-25T04:17:41;103713.59;;;-1.50;100.00
71666;BME280;59503;53.486;10.196;2023-01-25T04:20:07;103712.56;;;-1.49;100.00
71666;BME280;59503;53.486;10.196;2023-01-25T04:22:32;103711.94;;;-1.51;100.00
71666;BME280;59503;53.486;10.196;2023-01-25T04:24:58;103712.13;;;-1.46;100.00
71666;BME280;59503;53.486;10.196;2023-01-25T04:27:23;103698.16;;;-1.41;100.00
71666;BME280;59503;53.486;10.196;2023-01-25T04:29:49;103703.31;;;-1.40;100.00
71666;BME280;59503;53.486;10.196;2023-01-25T04:32:14;103701.84;;;-1.36;100.00
71666;BME280;59503;53.486;10.196;2023-01-25T04:34:39;103697.97;;;-1.33;100.00
71666;BME280;59503;53.486;10.196;2023-01-25T04:37:05;103701.84;;;-1.36;100.00
71666;BME280;59503;53.486;10.196;2023-01-25T04:39:30;103697.78;;;-1.38;100.00
71666;BME280;59503;53.486;10.196;2023-01-25T04:41:56;103701.22;;;-1.31;100.00
71666;BME280;59503;53.486;10.196;2023-01-25T04:44:21;103689.97;;;-1.40;100.00
71666;BME280;59503;53.486;10.196;2023-01-25T04:46:46;103687.50;;;-1.48;100.00
71666;BME280;59503;53.486;10.196;2023-01-25T04:49:12;103675.25;;;-1.55;100.00
71666;BME280;59503;53.486;10.196;2023-01-25T04:51:38;103671.97;;;-1.57;100.00
71666;BME280;59503;53.486;10.196;2023-01-25T04:54:03;103680.78;;;-1.57;100.00
71666;BME280;59503;53.486;10.196;2023-01-25T04:56:29;103678.31;;;-1.52;100.00
71666;BME280;59503;53.486;10.196;2023-01-25T04:58:54;103681.56;;;-1.43;100.00
71666;BME280;59503;53.486;10.196;2023-01-25T05:01:20;103681.97;;;-1.40;100.00
71666;BME280;59503;53.486;10.196;2023-01-25T05:03:45;103671.50;;;-1.41;100.00
71666;BME280;59503;53.486;10.196;2023-01-25T05:06:10;103672.75;;;-1.44;100.00
71666;BME280;59503;53.486;10.196;2023-01-25T05:08:36;103674.38;;;-1.43;100.00
71666;BME280;59503;53.486;10.196;2023-01-25T05:11:01;103677.44;;;-1.39;100.00
71666;BME280;59503;53.486;10.196;2023-01-25T05:13:27;103671.91;;;-1.44;100.00
71666;BME280;59503;53.486;10.196;2023-01-25T05:15:55;103669.84;;;-1.36;100.00
71666;BME280;59503;53.486;10.196;2023-01-25T05:18:20;103658.16;;;-1.35;100.00
71666;BME280;59503;53.486;10.196;2023-01-25T05:20:46;103675.16;;;-1.29;100.00
71666;BME280;59503;53.486;10.196;2023-01-25T05:23:11;103674.78;;;-1.39;100.00
71666;BME280;59503;53.486;10.196;2023-01-25T05:25:36;103666.16;;;-1.41;100.00
71666;BME280;59503;53.486;10.196;2023-01-25T05:28:20;103649.56;;;-1.43;100.00
71666;BME280;59503;53.486;10.196;2023-01-25T05:30:45;103650.59;;;-1.51;100.00
71666;BME280;59503;53.486;10.196;2023-01-25T05:33:11;103652.06;;;-1.55;100.00
71666;BME280;59503;53.486;10.196;2023-01-25T05:35:36;103649.38;;;-1.48;100.00
71666;BME280;59503;53.486;10.196;2023-01-25T05:38:02;103650.56;;;-1.38;100.00
71666;BME280;59503;53.486;10.196;2023-01-25T05:40:27;103644.00;;;-1.42;100.00
71666;BME280;59503;53.486;10.196;2023-01-25T05:42:56;103644.00;;;-1.42;100.00
71666;BME280;59503;53.486;10.196;2023-01-25T05:45:22;103639.69;;;-1.43;100.00
71666;BME280;59503;53.486;10.196;2023-01-25T05:47:52;103638.88;;;-1.37;100.00
71666;BME280;59503;53.486;10.196;2023-01-25T05:50:18;103635.38;;;-1.37;100.00
71666;BME280;59503;53.486;10.196;2023-01-25T05:52:45;103638.47;;;-1.40;100.00
71666;BME280;59503;53.486;10.196;2023-01-25T05:55:10;103633.78;;;-1.45;100.00
71666;BME280;59503;53.486;10.196;2023-01-25T05:57:36;103640.50;;;-1.36;100.00
71666;BME280;59503;53.486;10.196;2023-01-25T06:00:03;103633.09;;;-1.34;100.00
71666;BME280;59503;53.486;10.196;2023-01-25T06:02:28;103633.28;;;-1.29;100.00
71666;BME280;59503;53.486;10.196;2023-01-25T06:04:53;103638.19;;;-1.26;100.00
71666;BME280;59503;53.486;10.196;2023-01-25T06:07:19;103630.47;;;-1.40;100.00
71666;BME280;59503;53.486;10.196;2023-01-25T06:09:44;103621.88;;;-1.49;100.00
71666;BME280;59503;53.486;10.196;2023-01-25T06:12:09;103624.13;;;-1.46;100.00
71666;BME280;59503;53.486;10.196;2023-01-25T06:14:34;103616.97;;;-1.52;100.00
71666;BME280;59503;53.486;10.196;2023-01-25T06:17:00;103619.22;;;-1.49;100.00
71666;BME280;59503;53.486;10.196;2023-01-25T06:19:25;103617.56;;;-1.43;100.00
71666;BME280;59503;53.486;10.196;2023-01-25T06:21:51;103617.56;;;-1.43;100.00
71666;BME280;59503;53.486;10.196;2023-01-25T06:24:16;103616.06;;;-1.33;100.00
71666;BME280;59503;53.486;10.196;2023-01-25T06:26:41;103623.28;;;-1.40;100.00
71666;BME280;59503;53.486;10.196;2023-01-25T06:29:06;103617.59;;;-1.50;100.00
71666;BME280;59503;53.486;10.196;2023-01-25T06:31:32;103613.88;;;-1.49;100.00
71666;BME280;59503;53.486;10.196;2023-01-25T06:33:58;103618.19;;;-1.54;100.00
71666;BME280;59503;53.486;10.196;2023-01-25T06:36:25;103624.94;;;-1.45;100.00
71666;BME280;59503;53.486;10.196;2023-01-25T06:38:51;103616.94;;;-1.45;100.00
71666;BME280;59503;53.486;10.196;2023-01-25T06:41:17;103616.53;;;-1.49;100.00
71666;BME280;59503;53.486;10.196;2023-01-25T06:43:43;103611.00;;;-1.47;100.00
71666;BME280;59503;53.486;10.196;2023-01-25T06:46:10;103622.47;;;-1.40;100.00
71666;BME280;59503;53.486;10.196;2023-01-25T06:48:38;103627.75;;;-1.34;100.00
71666;BME280;59503;53.486;10.196;2023-01-25T06:51:07;103626.72;;;-1.26;100.00
71666;BME280;59503;53.486;10.196;2023-01-25T06:53:35;103625.72;;;-1.32;100.00
71666;BME280;59503;53.486;10.196;2023-01-25T06:56:03;103633.31;;;-1.35;100.00
71666;BME280;59503;53.486;10.196;2023-01-25T06:58:29;103628.38;;;-1.32;100.00
71666;BME280;59503;53.486;10.196;2023-01-25T07:01:04;103628.63;;;-1.40;100.00
71666;BME280;59503;53.486;10.196;2023-01-25T07:03:30;103622.88;;;-1.43;100.00
71666;BME280;59503;53.486;10.196;2023-01-25T07:06:04;103627.97;;;-1.35;100.00
71666;BME280;59503;53.486;10.196;2023-01-25T07:08:30;103631.47;;;-1.41;100.00
71666;BME280;59503;53.486;10.196;2023-01-25T07:11:01;103625.97;;;-1.40;100.00
71666;BME280;59503;53.486;10.196;2023-01-25T07:13:28;103615.28;;;-1.40;100.00
71666;BME280;59503;53.486;10.196;2023-01-25T07:15:59;103623.66;;;-1.36;100.00
71666;BME280;59503;53.486;10.196;2023-01-25T07:18:26;103608.66;;;-1.31;100.00
71666;BME280;59503;53.486;10.196;2023-01-25T07:20:51;103612.56;;;-1.27;100.00
71666;BME280;59503;53.486;10.196;2023-01-25T07:23:18;103610.06;;;-1.21;100.00
71666;BME280;59503;53.486;10.196;2023-01-25T07:25:48;103598.31;;;-1.14;100.00
71666;BME280;59503;53.486;10.196;2023-01-25T07:28:15;103606.31;;;-1.14;100.00
71666;BME280;59503;53.486;10.196;2023-01-25T07:30:41;103605.56;;;-1.21;100.00
71666;BME280;59503;53.486;10.196;2023-01-25T07:33:07;103603.69;;;-1.20;100.00
71666;BME280;59503;53.486;10.196;2023-01-25T07:35:33;103604.13;;;-1.23;100.00
71666;BME280;59503;53.486;10.196;2023-01-25T07:37:58;103592.03;;;-1.33;100.00
71666;BME280;59503;53.486;10.196;2023-01-25T07:40:23;103591.81;;;-1.31;100.00
71666;BME280;59503;53.486;10.196;2023-01-25T07:42:52;103591.22;;;-1.27;100.00
71666;BME280;59503;53.486;10.196;2023-01-25T07:45:18;103585.00;;;-1.20;100.00
71666;BME280;59503;53.486;10.196;2023-01-25T07:47:43;103582.41;;;-1.34;100.00
71666;BME280;59503;53.486;10.196;2023-01-25T07:50:10;103587.53;;;-1.32;100.00
71666;BME280;59503;53.486;10.196;2023-01-25T07:52:36;103583.47;;;-1.35;100.00
71666;BME280;59503;53.486;10.196;2023-01-25T07:55:01;103579.56;;;-1.39;100.00
71666;BME280;59503;53.486;10.196;2023-01-25T07:57:26;103575.63;;;-1.36;100.00
71666;BME280;59503;53.486;10.196;2023-01-25T07:59:53;103572.59;;;-1.40;100.00
71666;BME280;59503;53.486;10.196;2023-01-25T08:02:18;103581.16;;;-1.24;100.00
71666;BME280;59503;53.486;10.196;2023-01-25T08:04:43;103573.16;;;-1.24;100.00
71666;BME280;59503;53.486;10.196;2023-01-25T08:07:10;103559.81;;;-1.24;100.00
71666;BME280;59503;53.486;10.196;2023-01-25T08:09:35;103554.28;;;-1.30;100.00
71666;BME280;59503;53.486;10.196;2023-01-25T08:12:00;103550.34;;;-1.27;100.00
71666;BME280;59503;53.486;10.196;2023-01-25T08:14:26;103552.38;;;-1.23;100.00
71666;BME280;59503;53.486;10.196;2023-01-25T08:16:51;103546.69;;;-1.33;100.00
71666;BME280;59503;53.486;10.196;2023-01-25T08:19:17;103549.34;;;-1.26;100.00
71666;BME280;59503;53.486;10.196;2023-01-25T08:21:44;103548.69;;;-1.21;100.00
71666;BME280;59503;53.486;10.196;2023-01-25T08:24:09;103544.94;;;-1.14;100.00
71666;BME280;59503;53.486;10.196;2023-01-25T08:26:36;103549.88;;;-1.17;100.00
71666;BME280;59503;53.486;10.196;2023-01-25T08:29:02;103539.16;;;-1.04;100.00
71666;BME280;59503;53.486;10.196;2023-01-25T08:31:30;103519.47;;;-1.10;100.00
71666;BME280;59503;53.486;10.196;2023-01-25T08:33:57;103523.81;;;-1.15;100.00
71666;BME280;59503;53.486;10.196;2023-01-25T08:36:23;103522.78;;;-1.14;100.00
71666;BME280;59503;53.486;10.196;2023-01-25T08:38:59;103527.53;;;-1.16;100.00
71666;BME280;59503;53.486;10.196;2023-01-25T08:41:26;103529.19;;;-1.22;100.00
71666;BME280;59503;53.486;10.196;2023-01-25T08:43:53;103518.34;;;-1.27;100.00
71666;BME280;59503;53.486;10.196;2023-01-25T08:46:20;103521.84;;;-1.27;100.00
71666;BME280;59503;53.486;10.196;2023-01-25T08:48:46;103520.34;;;-1.23;100.00
71666;BME280;59503;53.486;10.196;2023-01-25T08:51:13;103504.31;;;-1.16;100.00
71666;BME280;59503;53.486;10.196;2023-01-25T08:53:39;103513.13;;;-1.15;100.00
71666;BME280;59503;53.486;10.196;2023-01-25T08:56:06;103513.75;;;-1.13;100.00
71666;BME280;59503;53.486;10.196;2023-01-25T08:58:32;103500.28;;;-1.00;100.00
71666;BME280;59503;53.486;10.196;2023-01-25T09:01:02;103492.06;;;-0.99;100.00
71666;BME280;59503;53.486;10.196;2023-01-25T09:03:28;103491.09;;;-1.04;100.00
71666;BME280;59503;53.486;10.196;2023-01-25T09:05:53;103480.81;;;-1.01;100.00
71666;BME280;59503;53.486;10.196;2023-01-25T09:08:19;103491.28;;;-0.99;100.00
71666;BME280;59503;53.486;10.196;2023-01-25T09:10:44;103483.22;;;-0.93;100.00
71666;BME280;59503;53.486;10.196;2023-01-25T09:13:09;103468.53;;;-1.08;100.00
71666;BME280;59503;53.486;10.196;2023-01-25T09:15:35;103475.88;;;-1.04;100.00
71666;BME280;59503;53.486;10.196;2023-01-25T09:18:01;103470.81;;;-1.12;100.00
71666;BME280;59503;53.486;10.196;2023-01-25T09:20:26;103482.97;;;-1.16;100.00
71666;BME280;59503;53.486;10.196;2023-01-25T09:22:51;103459.16;;;-1.17;100.00
71666;BME280;59503;53.486;10.196;2023-01-25T09:25:17;103473.88;;;-1.08;100.00
71666;BME280;59503;53.486;10.196;2023-01-25T09:27:42;103472.81;;;-1.01;100.00
71666;BME280;59503;53.486;10.196;2023-01-25T09:30:09;103468.69;;;-1.03;100.00
71666;BME280;59503;53.486;10.196;2023-01-25T09:32:37;103459.50;;;-1.07;100.00
71666;BME280;59503;53.486;10.196;2023-01-25T09:35:03;103466.19;;;-0.98;100.00
71666;BME280;59503;53.486;10.196;2023-01-25T09:37:29;103469.19;;;-0.88;100.00
71666;BME280;59503;53.486;10.196;2023-01-25T09:39:54;103468.97;;;-0.87;100.00
71666;BME280;59503;53.486;10.196;2023-01-25T09:47:59;103460.97;;;-0.87;100.00
71666;BME280;59503;53.486;10.196;2023-01-25T09:53:15;103461.28;;;-0.77;100.00
71666;BME280;59503;53.486;10.196;2023-01-25T09:55:48;103449.03;;;-0.84;100.00
71666;BME280;59503;53.486;10.196;2023-01-25T09:58:19;103456.44;;;-0.86;100.00
71666;BME280;59503;53.486;10.196;2023-01-25T10:00:48;103458.44;;;-0.82;100.00
71666;BME280;59503;53.486;10.196;2023-01-25T10:03:21;103447.38;;;-0.85;100.00
71666;BME280;59503;53.486;10.196;2023-01-25T10:05:53;103446.63;;;-0.92;100.00
71666;BME280;59503;53.486;10.196;2023-01-25T10:08:34;103440.28;;;-0.91;100.00
71666;BME280;59503;53.486;10.196;2023-01-25T10:13:47;103435.53;;;-0.89;100.00
71666;BME280;59503;53.486;10.196;2023-01-25T10:16:20;103432.31;;;-0.98;100.00
71666;BME280;59503;53.486;10.196;2023-01-25T10:18:54;103438.78;;;-0.87;100.00
71666;BME280;59503;53.486;10.196;2023-01-25T10:21:30;103434.09;;;-0.92;100.00
71666;BME280;59503;53.486;10.196;2023-01-25T10:24:29;103425.25;;;-0.86;100.00
71666;BME280;59503;53.486;10.196;2023-01-25T10:27:02;103417.31;;;-0.74;100.00
71666;BME280;59503;53.486;10.196;2023-01-25T10:29:35;103410.69;;;-0.72;100.00
71666;BME280;59503;53.486;10.196;2023-01-25T10:32:13;103398.78;;;-0.69;100.00
71666;BME280;59503;53.486;10.196;2023-01-25T10:34:48;103390.47;;;-0.61;100.00
71666;BME280;59503;53.486;10.196;2023-01-25T10:37:21;103395.34;;;-0.58;100.00
71666;BME280;59503;53.486;10.196;2023-01-25T10:39:55;103399.22;;;-0.72;100.00
71666;BME280;59503;53.486;10.196;2023-01-25T10:42:25;103389.34;;;-0.72;100.00
71666;BME280;59503;53.486;10.196;2023-01-25T10:44:51;103388.31;;;-0.71;100.00
71666;BME280;59503;53.486;10.196;2023-01-25T10:47:23;103385.13;;;-0.79;100.00
71666;BME280;59503;53.486;10.196;2023-01-25T10:49:57;103387.34;;;-0.76;100.00
71666;BME280;59503;53.486;10.196;2023-01-25T10:52:28;103386.28;;;-0.75;100.00
71666;BME280;59503;53.486;10.196;2023-01-25T10:55:18;103377.47;;;-0.76;100.00
71666;BME280;59503;53.486;10.196;2023-01-25T10:57:47;103370.00;;;-0.67;100.00
71666;BME280;59503;53.486;10.196;2023-01-25T11:02:57;103349.13;;;-0.95;100.00
71666;BME280;59503;53.486;10.196;2023-01-25T11:05:28;103355.75;;;-0.79;100.00
71666;BME280;59503;53.486;10.196;2023-01-25T11:07:55;103346.09;;;-0.80;100.00
71666;BME280;59503;53.486;10.196;2023-01-25T11:10:35;103352.69;;;-0.83;100.00
71666;BME280;59503;53.486;10.196;2023-01-25T11:15:42;103352.47;;;-0.81;100.00
71666;BME280;59503;53.486;10.196;2023-01-25T11:18:15;103344.03;;;-0.78;100.00
71666;BME280;59503;53.486;10.196;2023-01-25T11:20:42;103323.84;;;-0.74;100.00
71666;BME280;59503;53.486;10.196;2023-01-25T11:23:25;103331.78;;;-0.68;100.00
71666;BME280;59503;53.486;10.196;2023-01-25T11:25:51;103325.47;;;-0.73;100.00
71666;BME280;59503;53.486;10.196;2023-01-25T11:28:21;103322.81;;;-0.73;100.00
71666;BME280;59503;53.486;10.196;2023-01-25T11:30:49;103308.84;;;-0.75;100.00
71666;BME280;59503;53.486;10.196;2023-01-25T11:33:17;103300.13;;;-0.64;100.00
71666;BME280;59503;53.486;10.196;2023-01-25T11:36:19;103289.19;;;-0.63;100.00
71666;BME280;59503;53.486;10.196;2023-01-25T11:41:27;103279.25;;;-0.56;100.00
71666;BME280;59503;53.486;10.196;2023-01-25T11:49:26;103267.28;;;-0.53;100.00
71666;BME280;59503;53.486;10.196;2023-01-25T11:52:11;103253.56;;;-0.57;100.00
71666;BME280;59503;53.486;10.196;2023-01-25T11:54:42;103249.78;;;-0.49;100.00
71666;BME280;59503;53.486;10.196;2023-01-25T11:57:22;103239.88;;;-0.49;100.00
71666;BME280;59503;53.486;10.196;2023-01-25T12:05:22;103226.94;;;-0.63;100.00
71666;BME280;59503;53.486;10.196;2023-01-25T12:08:09;103222.06;;;-0.66;100.00
71666;BME280;59503;53.486;10.196;2023-01-25T12:16:34;103193.88;;;-0.62;100.00
71666;BME280;59503;53.486;10.196;2023-01-25T12:22:08;103180.44;;;-0.56;100.00
71666;BME280;59503;53.486;10.196;2023-01-25T12:32:54;103163.59;;;-0.56;100.00
71666;BME280;59503;53.486;10.196;2023-01-25T12:35:29;103153.34;;;-0.59;100.00
71666;BME280;59503;53.486;10.196;2023-01-25T12:38:03;103141.38;;;-0.57;100.00
71666;BME280;59503;53.486;10.196;2023-01-25T12:49:22;103125.94;;;-0.66;100.00
71666;BME280;59503;53.486;10.196;2023-01-25T12:51:51;103118.50;;;-0.64;100.00
71666;BME280;59503;53.486;10.196;2023-01-25T12:54:30;103124.66;;;-0.64;100.00
71666;BME280;59503;53.486;10.196;2023-01-25T12:57:28;103115.00;;;-0.76;100.00
71666;BME280;59503;53.486;10.196;2023-01-25T13:00:15;103106.84;;;-0.81;100.00
71666;BME280;59503;53.486;10.196;2023-01-25T13:03:07;103104.66;;;-0.84;100.00
71666;BME280;59503;53.486;10.196;2023-01-25T13:05:46;103099.56;;;-0.74;100.00
71666;BME280;59503;53.486;10.196;2023-01-25T13:08:33;103095.47;;;-0.77;100.00
71666;BME280;59503;53.486;10.196;2023-01-25T13:11:15;103091.69;;;-0.69;100.00
71666;BME280;59503;53.486;10.196;2023-01-25T13:13:43;103093.16;;;-0.73;100.00
71666;BME280;59503;53.486;10.196;2023-01-25T13:18:52;103090.25;;;-0.83;100.00
71666;BME280;59503;53.486;10.196;2023-01-25T13:21:38;103087.47;;;-0.77;100.00
71666;BME280;59503;53.486;10.196;2023-01-25T13:26:45;103091.44;;;-0.79;100.00
71666;BME280;59503;53.486;10.196;2023-01-25T13:32:00;103086.63;;;-0.89;100.00
71666;BME280;59503;53.486;10.196;2023-01-25T13:37:04;103065.19;;;-0.82;100.00
71666;BME280;59503;53.486;10.196;2023-01-25T13:39:42;103050.53;;;-0.91;100.00
71666;BME280;59503;53.486;10.196;2023-01-25T13:44:34;103050.19;;;-0.83;100.00
71666;BME280;59503;53.486;10.196;2023-01-25T13:47:04;103046.41;;;-0.76;100.00
71666;BME280;59503;53.486;10.196;2023-01-25T13:49:42;103047.53;;;-0.83;100.00
71666;BME280;59503;53.486;10.196;2023-01-25T13:52:17;103047.03;;;-0.92;100.00